Time;durP1;ratioP1;P1;durP2;ratioP2;P2;SDS_P1;SDS_P2;PMS_P1;PMS_P2;Temp;Humidity;BMP_temperature;BMP_pressure;BME280_temperature;BME280_humidity;BME280_pressure;Samples;Min_cycle;Max_cycle;Signal;HPM_P1;HPM_P2
2024/04/22 00:00:27;;;;;;;3.00;1.92;;;3.90;99.90;;;;;;5327215;26;20019;-70
2024/04/22 00:02:53;;;;;;;2.17;1.15;;;3.90;99.90;;;;;;5345655;26;20082;-70
2024/04/22 00:05:20;;;;;;;1.13;0.95;;;3.80;99.90;;;;;;5357381;26;20004;-70
2024/04/22 00:07:47;;;;;;;1.67;1.20;;;3.70;99.90;;;;;;5369455;26;20496;-70
2024/04/22 00:10:13;;;;;;;1.70;1.45;;;3.70;99.90;;;;;;5360501;26;20000;-70
2024/04/22 00:12:39;;;;;;;1.08;0.98;;;3.70;99.90;;;;;;5360272;26;20005;-70
2024/04/22 00:15:05;;;;;;;2.78;1.65;;;3.50;99.90;;;;;;5349878;26;20006;-70
2024/04/22 00:17:31;;;;;;;4.30;1.73;;;3.50;99.90;;;;;;5337087;26;19997;-70
2024/04/22 00:20:00;;;;;;;2.55;1.55;;;3.50;99.90;;;;;;5349380;26;20004;-69
2024/04/22 00:22:26;;;;;;;1.17;0.68;;;3.50;99.90;;;;;;5363692;26;20005;-69
2024/04/22 00:24:52;;;;;;;1.80;1.65;;;3.40;99.90;;;;;;5337036;26;20080;-69
2024/04/22 00:27:17;;;;;;;2.80;0.80;;;3.30;99.90;;;;;;5346621;26;20001;-69
2024/04/22 00:29:43;;;;;;;0.88;0.70;;;3.30;99.90;;;;;;5318181;26;20051;-69
2024/04/22 00:32:09;;;;;;;4.35;1.55;;;3.30;99.90;;;;;;5348181;26;20020;-70
2024/04/22 00:34:35;;;;;;;5.78;1.88;;;3.20;99.90;;;;;;5360681;26;20011;-69
2024/04/22 00:37:00;;;;;;;2.17;0.98;;;3.20;99.90;;;;;;5364887;26;20345;-69
2024/04/22 00:39:26;;;;;;;1.08;0.93;;;3.10;99.90;;;;;;5329680;26;20188;-69
2024/04/22 00:41:52;;;;;;;2.03;1.58;;;3.10;99.90;;;;;;5351364;26;20344;-69
2024/04/22 00:44:18;;;;;;;4.18;1.33;;;3.10;99.90;;;;;;5344653;26;19997;-70
2024/04/22 00:46:44;;;;;;;5.57;0.98;;;3.10;99.90;;;;;;5351569;26;20032;-69
2024/04/22 00:49:10;;;;;;;2.25;1.20;;;3.00;99.90;;;;;;5360465;26;20011;-69
2024/04/22 00:51:38;;;;;;;7.75;1.52;;;3.00;99.90;;;;;;5350670;26;20020;-69
2024/04/22 00:54:07;;;;;;;12.30;1.00;;;2.90;99.90;;;;;;5343305;26;20001;-69
2024/04/22 00:56:35;;;;;;;4.97;1.48;;;2.90;99.90;;;;;;5350369;26;20036;-68
2024/04/22 00:59:02;;;;;;;3.17;1.35;;;2.90;99.90;;;;;;5342898;26;20002;-68
2024/04/22 01:01:28;;;;;;;13.85;1.83;;;2.80;99.90;;;;;;5364077;26;20387;-68
2024/04/22 01:03:54;;;;;;;2.33;1.63;;;2.80;99.90;;;;;;5341995;26;20012;-70
2024/04/22 01:06:20;;;;;;;1.30;1.08;;;2.80;99.90;;;;;;5360044;26;20107;-68
2024/04/22 01:08:45;;;;;;;1.20;0.68;;;2.80;99.90;;;;;;5376498;26;20019;-69
2024/04/22 01:11:12;;;;;;;1.27;1.17;;;2.80;99.90;;;;;;5366654;26;20000;-68
2024/04/22 01:13:38;;;;;;;3.42;1.35;;;2.70;99.90;;;;;;5342738;26;20016;-68
2024/04/22 01:16:04;;;;;;;1.95;0.93;;;2.70;99.90;;;;;;5370200;26;19996;-68
2024/04/22 01:18:30;;;;;;;2.03;1.38;;;2.70;99.90;;;;;;5341986;26;20011;-69
2024/04/22 01:20:56;;;;;;;3.08;2.15;;;2.60;99.90;;;;;;5349350;26;20005;-69
2024/04/22 01:23:22;;;;;;;1.85;1.02;;;2.60;99.90;;;;;;5356239;26;20437;-69
2024/04/22 01:25:57;;;;;;;1.83;1.38;;;2.50;99.90;;;;;;5361489;26;20001;-69
2024/04/22 01:28:23;;;;;;;1.88;1.35;;;2.40;99.90;;;;;;5376414;26;20011;-69
2024/04/22 01:30:50;;;;;;;2.22;1.42;;;2.30;99.90;;;;;;5357573;26;20404;-69
2024/04/22 01:33:16;;;;;;;3.30;1.77;;;2.30;99.90;;;;;;5342336;26;20005;-69
2024/04/22 01:35:41;;;;;;;0.60;0.60;;;2.20;99.90;;;;;;5348800;26;20078;-69
2024/04/22 01:38:07;;;;;;;2.03;1.15;;;2.20;99.90;;;;;;5341962;26;20012;-69
2024/04/22 01:40:33;;;;;;;1.92;1.02;;;2.20;99.90;;;;;;5348887;26;20029;-69
2024/04/22 01:42:59;;;;;;;1.30;1.02;;;2.10;99.90;;;;;;5342505;26;20012;-69
2024/04/22 01:45:24;;;;;;;2.05;1.27;;;2.10;99.90;;;;;;5351317;26;19993;-69
2024/04/22 01:47:50;;;;;;;1.33;1.05;;;2.10;99.90;;;;;;5342245;26;20001;-69
2024/04/22 01:50:16;;;;;;;0.50;0.50;;;2.00;99.90;;;;;;5361073;26;20031;-69
2024/04/22 01:52:42;;;;;;;1.52;0.80;;;2.00;99.90;;;;;;5363755;26;20044;-69
2024/04/22 01:55:07;;;;;;;0.73;0.73;;;2.00;99.90;;;;;;5374091;26;20345;-69
2024/04/22 01:57:33;;;;;;;7.03;1.17;;;2.00;99.90;;;;;;5356149;26;20075;-69
2024/04/22 01:59:59;;;;;;;2.63;1.10;;;1.90;99.90;;;;;;5349823;26;20456;-69
2024/04/22 02:02:25;;;;;;;5.18;1.02;;;1.80;99.90;;;;;;5356627;26;20000;-69
2024/04/22 02:04:50;;;;;;;2.13;1.17;;;1.70;99.90;;;;;;5346007;26;20033;-69
2024/04/22 02:07:16;;;;;;;1.35;1.05;;;1.70;99.90;;;;;;5345582;26;20437;-69
2024/04/22 02:09:42;;;;;;;4.38;1.77;;;1.70;99.90;;;;;;5345433;26;20001;-69
2024/04/22 02:12:08;;;;;;;3.08;1.52;;;1.70;99.90;;;;;;5375069;26;20004;-69
2024/04/22 02:14:35;;;;;;;2.05;1.48;;;1.70;99.90;;;;;;5342017;26;20078;-69
2024/04/22 02:17:01;;;;;;;2.60;1.88;;;1.60;99.90;;;;;;5370270;26;20015;-69
2024/04/22 02:19:27;;;;;;;2.00;1.77;;;1.60;99.90;;;;;;5370551;26;20005;-69
2024/04/22 02:21:53;;;;;;;4.88;1.77;;;1.60;99.90;;;;;;5348529;26;20005;-68
2024/04/22 02:24:19;;;;;;;3.60;1.35;;;1.60;99.90;;;;;;5357334;26;20450;-69
2024/04/22 02:26:44;;;;;;;1.85;1.05;;;1.50;99.90;;;;;;5347652;26;20090;-69
2024/04/22 02:29:10;;;;;;;1.52;0.82;;;1.50;99.90;;;;;;5342516;26;20000;-69
2024/04/22 02:31:36;;;;;;;0.60;0.60;;;1.50;99.90;;;;;;5354311;26;20511;-68
2024/04/22 02:34:02;;;;;;;1.25;1.15;;;1.50;99.90;;;;;;5346217;26;20068;-68
2024/04/22 02:36:28;;;;;;;1.42;0.93;;;1.40;99.90;;;;;;5350104;26;20057;-68
2024/04/22 02:38:54;;;;;;;2.88;1.48;;;1.40;99.90;;;;;;5356914;26;20000;-69
2024/04/22 02:41:19;;;;;;;2.85;1.35;;;1.30;99.90;;;;;;5361370;26;19997;-69
2024/04/22 02:43:47;;;;;;;1.60;1.00;;;1.30;99.90;;;;;;5366629;26;20007;-68
2024/04/22 02:46:12;;;;;;;1.75;1.38;;;1.20;99.90;;;;;;5362935;26;19997;-69
2024/04/22 02:48:38;;;;;;;2.00;0.80;;;1.30;99.90;;;;;;5368597;26;20476;-68
2024/04/22 02:51:04;;;;;;;1.98;0.98;;;1.20;99.90;;;;;;5344156;26;20016;-69
2024/04/22 02:53:30;;;;;;;2.13;1.35;;;1.30;99.90;;;;;;5350136;26;20001;-68
2024/04/22 02:55:55;;;;;;;2.38;0.98;;;1.20;99.90;;;;;;5348745;26;20040;-67
2024/04/22 02:58:21;;;;;;;1.38;0.90;;;1.20;99.90;;;;;;5360019;26;20024;-68
2024/04/22 03:00:48;;;;;;;0.95;0.88;;;1.20;99.90;;;;;;5360764;26;20001;-69
2024/04/22 03:03:17;;;;;;;3.83;1.75;;;1.20;99.90;;;;;;5356815;26;20510;-68
2024/04/22 03:05:43;;;;;;;1.35;0.77;;;1.10;99.90;;;;;;5358288;26;20480;-69
2024/04/22 03:08:08;;;;;;;2.83;1.50;;;1.00;99.90;;;;;;5364078;26;20016;-69
2024/04/22 03:10:38;;;;;;;2.60;2.28;;;0.90;99.90;;;;;;5369711;26;19997;-68
2024/04/22 03:13:08;;;;;;;1.33;1.13;;;0.90;99.90;;;;;;5361367;26;20001;-69
2024/04/22 03:15:35;;;;;;;1.45;1.13;;;0.80;99.90;;;;;;5369733;26;20008;-69
2024/04/22 03:18:01;;;;;;;1.08;0.95;;;0.80;99.90;;;;;;5362860;26;20009;-70
2024/04/22 03:20:27;;;;;;;1.00;0.82;;;0.90;99.90;;;;;;5335779;26;20001;-69
2024/04/22 03:22:52;;;;;;;5.13;1.50;;;0.80;99.90;;;;;;5365973;26;20442;-69
2024/04/22 03:25:18;;;;;;;1.85;0.80;;;0.80;99.90;;;;;;5349790;26;20449;-69
2024/04/22 03:27:44;;;;;;;5.35;2.38;;;0.80;99.90;;;;;;5372387;26;20000;-68
2024/04/22 03:30:10;;;;;;;3.40;1.15;;;0.70;99.90;;;;;;5373086;26;20078;-68
2024/04/22 03:32:37;;;;;;;2.20;1.55;;;0.70;99.90;;;;;;5359237;26;20082;-68
2024/04/22 03:35:03;;;;;;;1.38;0.65;;;0.70;99.90;;;;;;5358494;26;20004;-69
2024/04/22 03:37:29;;;;;;;2.45;1.10;;;0.70;99.90;;;;;;5357654;26;20001;-69
2024/04/22 03:39:55;;;;;;;1.60;0.90;;;0.70;99.90;;;;;;5371831;26;20780;-69
2024/04/22 03:42:21;;;;;;;2.15;1.08;;;0.60;99.90;;;;;;5364935;26;19996;-69
2024/04/22 03:44:47;;;;;;;3.60;2.13;;;0.70;99.90;;;;;;5353664;26;19997;-69
2024/04/22 03:49:58;;;;;;;1.80;1.55;;;0.70;99.90;;;;;;5350743;26;19997;-68
2024/04/22 03:52:24;;;;;;;0.98;0.80;;;0.70;99.90;;;;;;5377234;26;20018;-70
2024/04/22 03:54:49;;;;;;;0.93;0.77;;;0.60;99.90;;;;;;5352625;26;20001;-68
2024/04/22 03:57:15;;;;;;;1.10;0.65;;;0.60;99.90;;;;;;5358806;26;20510;-70
2024/04/22 03:59:41;;;;;;;1.25;1.20;;;0.60;99.90;;;;;;5350507;26;20001;-69
2024/04/22 04:02:07;;;;;;;4.47;2.50;;;0.60;99.90;;;;;;5347286;26;20000;-68
2024/04/22 04:04:33;;;;;;;1.02;0.85;;;0.60;99.90;;;;;;5377880;26;20336;-69
2024/04/22 04:06:59;;;;;;;0.70;0.50;;;0.50;99.90;;;;;;5366615;26;20008;-69
2024/04/22 04:09:25;;;;;;;1.27;1.02;;;0.50;99.90;;;;;;5349048;26;20005;-69
2024/04/22 04:11:51;;;;;;;3.38;1.40;;;0.60;99.90;;;;;;5344393;26;20349;-69
2024/04/22 04:14:18;;;;;;;1.90;1.40;;;0.50;99.90;;;;;;5387735;26;20383;-69
2024/04/22 04:16:44;;;;;;;3.13;1.67;;;0.50;99.90;;;;;;5365719;26;20425;-69
2024/04/22 04:19:10;;;;;;;1.33;1.13;;;0.50;99.90;;;;;;5377341;26;20004;-69
2024/04/22 04:21:37;;;;;;;5.05;1.70;;;0.50;99.90;;;;;;5346421;26;20355;-69
2024/04/22 04:24:03;;;;;;;2.22;1.73;;;0.50;99.90;;;;;;5344193;26;20331;-69
2024/04/22 04:26:29;;;;;;;2.42;1.73;;;0.40;99.90;;;;;;5359251;26;20078;-69
2024/04/22 04:28:55;;;;;;;1.27;1.17;;;0.40;99.90;;;;;;5357415;26;20004;-69
2024/04/22 04:31:20;;;;;;;2.55;1.42;;;0.40;99.90;;;;;;5371711;26;20054;-69
2024/04/22 04:33:46;;;;;;;1.95;1.00;;;0.40;99.90;;;;;;5363622;26;19996;-69
2024/04/22 04:36:12;;;;;;;3.72;1.58;;;0.40;99.90;;;;;;5353437;26;20020;-70
2024/04/22 04:38:38;;;;;;;3.05;2.13;;;0.40;99.90;;;;;;5370358;26;20487;-70
2024/04/22 04:41:04;;;;;;;1.95;1.75;;;0.40;99.90;;;;;;5372725;26;19997;-68
2024/04/22 04:43:32;;;;;;;1.02;0.93;;;0.40;99.90;;;;;;5365233;26;20011;-68
2024/04/22 04:45:58;;;;;;;3.28;1.83;;;0.50;99.90;;;;;;5358226;26;20134;-69
2024/04/22 04:48:24;;;;;;;1.35;1.20;;;0.50;99.90;;;;;;5360829;26;20043;-69
2024/04/22 04:50:51;;;;;;;1.73;1.33;;;0.60;99.90;;;;;;5369377;26;20015;-71
2024/04/22 04:53:18;;;;;;;1.77;1.13;;;0.60;99.90;;;;;;5342021;26;19997;-68
2024/04/22 04:55:48;;;;;;;1.45;1.05;;;0.70;99.90;;;;;;5349535;26;20005;-68
2024/04/22 04:58:14;;;;;;;0.95;0.80;;;0.60;99.90;;;;;;5348555;26;19996;-69
2024/04/22 05:00:41;;;;;;;5.93;1.25;;;0.60;99.90;;;;;;5344623;26;20005;-71
2024/04/22 05:03:07;;;;;;;0.43;0.43;;;0.50;99.90;;;;;;5347156;26;20011;-71
2024/04/22 05:05:33;;;;;;;1.77;1.25;;;0.60;99.90;;;;;;5342532;26;20001;-71
2024/04/22 05:07:58;;;;;;;1.35;1.15;;;0.60;99.90;;;;;;5367449;26;20005;-69
2024/04/22 05:10:24;;;;;;;2.30;1.65;;;0.60;99.90;;;;;;5350069;26;20011;-70
2024/04/22 05:12:50;;;;;;;2.55;1.42;;;0.70;99.90;;;;;;5362260;26;20001;-68
2024/04/22 05:15:17;;;;;;;2.53;2.05;;;0.80;99.90;;;;;;5346365;26;19996;-68
2024/04/22 05:17:43;;;;;;;8.98;1.50;;;0.80;99.90;;;;;;5344066;26;19997;-68
2024/04/22 05:20:09;;;;;;;1.42;0.95;;;0.80;99.90;;;;;;5401235;26;19996;-68
2024/04/22 05:22:35;;;;;;;2.00;1.40;;;0.90;99.90;;;;;;5371517;26;20005;-69
2024/04/22 05:25:01;;;;;;;1.63;1.13;;;1.00;99.90;;;;;;5376415;26;20076;-68
2024/04/22 05:27:27;;;;;;;1.85;1.05;;;1.10;99.90;;;;;;5353635;26;20000;-68
2024/04/22 05:29:52;;;;;;;3.10;1.85;;;1.10;99.90;;;;;;5348650;26;20012;-71
2024/04/22 05:32:21;;;;;;;1.80;1.70;;;1.10;99.90;;;;;;5342349;26;20012;-68
2024/04/22 05:37:31;;;;;;;0.30;0.30;;;1.20;99.90;;;;;;5366828;26;19997;-68
2024/04/22 05:39:57;;;;;;;2.50;1.52;;;1.30;99.90;;;;;;5372273;26;20016;-69
2024/04/22 05:42:22;;;;;;;0.95;0.82;;;1.40;99.90;;;;;;5341932;26;20009;-69
2024/04/22 05:44:48;;;;;;;3.17;1.48;;;1.40;99.90;;;;;;5336876;26;20473;-72
2024/04/22 05:47:14;;;;;;;3.78;1.98;;;1.40;99.90;;;;;;5371792;26;20073;-69
2024/04/22 05:49:39;;;;;;;1.58;1.48;;;1.50;99.90;;;;;;5360405;26;20005;-69
2024/04/22 05:52:06;;;;;;;1.55;1.25;;;1.60;99.90;;;;;;5350687;26;20000;-69
2024/04/22 05:54:32;;;;;;;1.98;1.05;;;1.70;99.90;;;;;;5343224;26;19993;-73
2024/04/22 05:56:59;;;;;;;2.00;1.70;;;1.80;99.90;;;;;;5347866;26;20511;-69
2024/04/22 05:59:24;;;;;;;0.93;0.90;;;1.90;99.90;;;;;;5314087;26;20005;-65
2024/04/22 06:01:50;;;;;;;1.45;0.70;;;1.90;99.90;;;;;;5368759;26;20332;-59
2024/04/22 06:04:16;;;;;;;3.20;2.78;;;2.10;99.90;;;;;;5349169;26;19993;-58
2024/04/22 06:06:42;;;;;;;2.60;2.38;;;2.30;99.90;;;;;;5349636;26;20001;-56
2024/04/22 06:09:14;;;;;;;2.28;2.08;;;2.50;99.90;;;;;;5350080;26;20070;-59
2024/04/22 06:11:40;;;;;;;2.08;1.13;;;2.70;99.90;;;;;;5349790;26;20012;-70
2024/04/22 06:14:05;;;;;;;2.00;1.42;;;2.80;99.90;;;;;;5352513;26;19996;-70
2024/04/22 06:16:32;;;;;;;2.90;1.65;;;2.80;99.90;;;;;;5345119;26;19997;-70
2024/04/22 06:18:58;;;;;;;1.45;1.30;;;2.80;99.90;;;;;;5366616;26;20004;-70
2024/04/22 06:21:24;;;;;;;1.27;0.93;;;2.90;99.90;;;;;;5348178;26;20012;-70
2024/04/22 06:23:50;;;;;;;4.25;1.23;;;2.90;99.90;;;;;;5367650;26;20004;-70
2024/04/22 06:26:17;;;;;;;1.67;1.27;;;3.00;99.90;;;;;;5376375;26;19993;-69
2024/04/22 06:28:43;;;;;;;2.15;1.60;;;3.00;99.90;;;;;;5354167;26;20357;-69
2024/04/22 06:31:09;;;;;;;0.85;0.85;;;3.10;99.90;;;;;;5359473;26;19997;-74
2024/04/22 06:33:40;;;;;;;1.70;1.35;;;3.20;99.90;;;;;;5361134;26;20518;-69
2024/04/22 06:36:07;;;;;;;;;;;3.20;99.90;;;;;;5362352;26;20440;-68
2024/04/22 06:38:33;;;;;;;4.00;0.80;;;3.30;99.90;;;;;;5350710;26;19941;-67
2024/04/22 06:40:59;;;;;;;1.65;1.30;;;3.40;99.90;;;;;;5353970;26;20438;-70
2024/04/22 06:43:25;;;;;;;3.53;1.55;;;3.50;99.90;;;;;;5353962;26;20077;-67
2024/04/22 06:45:51;;;;;;;2.97;1.63;;;3.50;99.90;;;;;;5344971;26;20070;-67
2024/04/22 06:48:16;;;;;;;1.85;1.15;;;3.60;99.90;;;;;;5374103;26;20040;-67
2024/04/22 06:50:43;;;;;;;3.38;2.28;;;3.60;99.90;;;;;;5346057;26;20069;-68
2024/04/22 06:53:09;;;;;;;1.35;1.23;;;3.70;99.90;;;;;;5360440;26;20004;-69
2024/04/22 06:55:35;;;;;;;4.18;2.13;;;3.80;99.90;;;;;;5352211;26;20008;-68
2024/04/22 06:58:01;;;;;;;3.08;2.03;;;3.80;99.90;;;;;;5367330;26;19992;-67
2024/04/22 07:00:28;;;;;;;2.20;1.25;;;3.90;99.90;;;;;;5347232;26;20009;-68
2024/04/22 07:02:55;;;;;;;1.08;0.85;;;4.00;99.90;;;;;;5350093;26;20071;-68
2024/04/22 07:05:21;;;;;;;3.60;1.23;;;4.10;99.90;;;;;;5348535;26;20005;-68
2024/04/22 07:07:47;;;;;;;2.25;1.65;;;4.20;99.90;;;;;;5361116;26;20001;-67
2024/04/22 07:10:13;;;;;;;1.60;1.00;;;4.30;99.90;;;;;;5358113;26;20016;-68
2024/04/22 07:12:42;;;;;;;2.60;1.00;;;4.40;99.90;;;;;;5345870;26;20474;-69
2024/04/22 07:15:08;;;;;;;5.75;1.00;;;4.50;99.90;;;;;;5343421;26;19997;-69
2024/04/22 07:17:33;;;;;;;0.43;0.40;;;4.60;99.90;;;;;;5346390;26;20007;-68
2024/04/22 07:19:59;;;;;;;6.63;1.30;;;4.60;99.90;;;;;;5349561;26;20005;-68
2024/04/22 07:22:29;;;;;;;4.53;1.42;;;4.80;99.90;;;;;;5363531;26;20546;-68
2024/04/22 07:24:55;;;;;;;2.05;0.85;;;4.90;99.90;;;;;;5366822;26;20024;-68
2024/04/22 07:27:24;;;;;;;2.28;1.55;;;5.10;99.90;;;;;;5346885;26;20007;-69
2024/04/22 07:29:51;;;;;;;2.40;1.58;;;5.10;99.90;;;;;;5345955;26;19997;-69
2024/04/22 07:32:17;;;;;;;2.35;1.25;;;5.20;99.90;;;;;;5374220;26;20004;-69
2024/04/22 07:34:44;;;;;;;4.43;1.38;;;5.30;99.90;;;;;;5378963;26;20019;-69
2024/04/22 07:37:28;;;;;;;3.90;1.60;;;5.40;99.90;;;;;;5350115;26;19997;-69
2024/04/22 07:40:12;;;;;;;2.63;1.40;;;5.60;99.90;;;;;;5361278;26;20083;-70
2024/04/22 07:42:38;;;;;;;5.00;1.85;;;5.80;99.90;;;;;;5339952;26;20007;-69
2024/04/22 07:45:04;;;;;;;1.77;1.33;;;5.90;99.90;;;;;;5362746;26;20001;-69
2024/04/22 07:47:30;;;;;;;2.85;0.93;;;6.00;99.90;;;;;;5343731;26;20001;-69
2024/04/22 07:49:56;;;;;;;2.03;1.05;;;6.20;99.90;;;;;;5359436;26;20396;-69
2024/04/22 07:52:22;;;;;;;2.88;1.20;;;6.30;99.90;;;;;;5343388;26;20008;-69
2024/04/22 07:54:48;;;;;;;2.55;1.08;;;6.50;99.90;;;;;;5369542;26;20515;-69
2024/04/22 07:57:14;;;;;;;5.30;2.03;;;6.50;99.90;;;;;;5350900;26;20017;-69
2024/04/22 07:59:40;;;;;;;2.47;1.10;;;6.70;99.90;;;;;;5370694;26;20008;-69
2024/04/22 08:02:07;;;;;;;1.83;1.15;;;6.70;99.90;;;;;;5345244;26;19993;-69
2024/04/22 08:04:33;;;;;;;7.57;1.63;;;6.90;99.90;;;;;;5358174;26;20011;-69
2024/04/22 08:07:03;;;;;;;5.65;1.65;;;7.00;99.90;;;;;;5345180;26;20001;-69
2024/04/22 08:09:30;;;;;;;3.30;1.15;;;7.20;99.90;;;;;;5357642;26;20000;-69
2024/04/22 08:11:57;;;;;;;3.20;1.48;;;7.30;99.90;;;;;;5343690;26;20011;-68
2024/04/22 08:14:22;;;;;;;2.53;1.20;;;7.40;99.90;;;;;;5354662;26;20505;-69
2024/04/22 08:16:48;;;;;;;2.33;1.38;;;7.50;99.90;;;;;;5346830;26;20020;-69
2024/04/22 08:19:14;;;;;;;1.38;0.85;;;7.60;99.90;;;;;;5357122;26;20019;-68
2024/04/22 08:21:40;;;;;;;1.90;1.38;;;7.50;99.90;;;;;;5355096;26;20467;-69
2024/04/22 08:24:06;;;;;;;1.80;1.20;;;7.30;99.90;;;;;;5370781;26;20004;-69
2024/04/22 08:26:32;;;;;;;5.25;2.38;;;7.50;99.90;;;;;;5348931;26;20000;-69
2024/04/22 08:28:57;;;;;;;1.90;1.20;;;7.60;99.90;;;;;;5352457;26;20331;-68
2024/04/22 08:31:23;;;;;;;1.42;1.00;;;7.60;99.90;;;;;;5362984;26;20014;-69
2024/04/22 08:33:49;;;;;;;1.73;1.20;;;7.70;99.90;;;;;;5366739;26;20012;-69
2024/04/22 08:36:20;;;;;;;2.13;1.42;;;7.80;99.90;;;;;;5344995;26;20001;-69
2024/04/22 08:38:45;;;;;;;7.43;1.30;;;8.00;99.90;;;;;;5359852;26;20362;-69
2024/04/22 08:41:14;;;;;;;3.13;1.17;;;8.10;99.50;;;;;;5344622;26;20029;-69
2024/04/22 08:43:40;;;;;;;1.63;1.10;;;8.20;99.70;;;;;;5358133;26;20020;-69
2024/04/22 08:46:06;;;;;;;5.22;1.52;;;8.30;99.70;;;;;;5357558;26;20005;-69
2024/04/22 08:48:32;;;;;;;2.17;1.42;;;8.40;99.90;;;;;;5349902;26;19993;-69
2024/04/22 08:51:00;;;;;;;8.27;2.72;;;8.70;99.60;;;;;;5344586;26;20000;-69
2024/04/22 08:53:26;;;;;;;9.57;2.40;;;9.00;98.20;;;;;;5316612;26;20027;-69
2024/04/22 08:55:52;;;;;;;1.52;1.20;;;9.10;97.20;;;;;;5342209;26;20004;-69
2024/04/22 08:58:18;;;;;;;4.13;1.38;;;9.20;95.70;;;;;;5342913;26;20011;-69
2024/04/22 09:00:44;;;;;;;4.70;2.10;;;9.50;97.40;;;;;;5353714;26;20036;-70
2024/04/22 09:03:10;;;;;;;4.05;2.55;;;9.60;96.70;;;;;;5354210;26;20000;-69
2024/04/22 09:05:36;;;;;;;3.60;1.90;;;10.00;96.80;;;;;;5342711;26;20012;-69
2024/04/22 09:08:04;;;;;;;4.07;1.08;;;10.10;95.20;;;;;;5348334;26;19996;-69
2024/04/22 09:10:33;;;;;;;4.22;1.15;;;10.40;95.80;;;;;;5342968;26;20005;-69
2024/04/22 09:13:03;;;;;;;2.20;1.38;;;10.50;92.90;;;;;;5347584;26;19992;-69
2024/04/22 09:15:30;;;;;;;2.33;1.10;;;10.40;92.60;;;;;;5344284;26;20090;-69
2024/04/22 09:17:56;;;;;;;2.60;0.60;;;10.40;91.90;;;;;;5348243;26;20024;-69
2024/04/22 09:20:25;;;;;;;2.22;1.10;;;10.50;90.60;;;;;;5358791;26;20013;-69
2024/04/22 09:22:52;;;;;;;2.38;1.13;;;10.20;90.40;;;;;;5336379;26;20552;-72
2024/04/22 09:25:18;;;;;;;1.35;0.85;;;10.20;90.20;;;;;;5374634;26;20000;-70
2024/04/22 09:27:49;;;;;;;3.47;1.35;;;10.20;90.80;;;;;;5343669;26;20033;-70
2024/04/22 09:30:18;;;;;;;13.48;0.93;;;10.60;91.40;;;;;;5345555;26;20488;-72
2024/04/22 09:32:46;;;;;;;1.05;0.82;;;10.80;88.80;;;;;;5351737;26;20001;-70
2024/04/22 09:35:19;;;;;;;1.77;1.35;;;10.90;87.60;;;;;;5353349;26;20008;-69
2024/04/22 09:37:47;;;;;;;3.85;1.75;;;10.90;88.20;;;;;;5358676;26;20005;-70
2024/04/22 09:40:14;;;;;;;1.63;0.85;;;10.80;89.00;;;;;;5349856;26;20315;-70
2024/04/22 09:42:45;;;;;;;9.02;0.98;;;10.60;89.90;;;;;;5364646;26;20015;-70
2024/04/22 09:45:13;;;;;;;3.55;1.33;;;10.30;92.40;;;;;;5350176;26;20004;-70
2024/04/22 09:47:41;;;;;;;5.05;1.40;;;10.10;94.10;;;;;;5375755;26;19997;-71
2024/04/22 09:50:10;;;;;;;1.85;1.08;;;10.00;94.80;;;;;;5349555;26;20001;-71
2024/04/22 09:52:38;;;;;;;2.13;1.27;;;10.00;95.50;;;;;;5364996;26;20007;-70
2024/04/22 09:55:06;;;;;;;1.15;0.85;;;10.00;94.60;;;;;;5350969;26;19997;-71
2024/04/22 09:57:43;;;;;;;2.10;1.27;;;10.00;93.10;;;;;;5377205;26;20077;-71
2024/04/22 10:00:11;;;;;;;1.27;0.77;;;10.50;91.10;;;;;;5348888;26;20029;-71
2024/04/22 10:02:37;;;;;;;2.55;1.25;;;10.40;90.50;;;;;;5359482;26;20322;-70
2024/04/22 10:05:11;;;;;;;3.50;1.42;;;10.80;88.60;;;;;;5346895;26;19997;-70
2024/04/22 10:07:39;;;;;;;1.80;1.08;;;10.80;89.00;;;;;;5363692;26;20674;-70
2024/04/22 10:10:09;;;;;;;1.17;0.82;;;11.00;89.90;;;;;;5348454;26;20470;-69
2024/04/22 10:12:35;;;;;;;1.92;1.27;;;11.00;87.70;;;;;;5370384;26;20164;-68
2024/04/22 10:15:14;;;;;;;2.28;1.27;;;11.10;85.30;;;;;;5355932;26;19993;-69
2024/04/22 10:17:42;;;;;;;2.60;1.42;;;11.10;83.10;;;;;;5364607;26;20012;-69
2024/04/22 10:20:10;;;;;;;7.65;1.25;;;11.20;84.30;;;;;;5351739;26;20013;-70
2024/04/22 10:22:38;;;;;;;1.40;1.15;;;11.30;85.20;;;;;;5369846;26;20321;-69
2024/04/22 10:25:05;;;;;;;2.33;1.23;;;11.10;81.80;;;;;;5370740;26;20007;-70
2024/04/22 10:27:32;;;;;;;1.02;0.70;;;10.80;82.20;;;;;;5363349;26;20011;-70
2024/04/22 10:29:58;;;;;;;3.28;1.38;;;10.70;80.10;;;;;;5339470;26;20355;-69
2024/04/22 10:32:25;;;;;;;1.50;0.70;;;10.80;80.50;;;;;;5364458;26;20023;-68
2024/04/22 10:34:51;;;;;;;1.65;0.75;;;10.50;80.00;;;;;;5349826;26;20011;-68
2024/04/22 10:37:17;;;;;;;2.85;0.90;;;10.70;82.60;;;;;;5366724;26;20021;-70
2024/04/22 10:39:44;;;;;;;1.65;0.80;;;10.70;83.60;;;;;;5371470;26;20069;-70
2024/04/22 10:42:15;;;;;;;3.17;1.60;;;10.40;83.50;;;;;;5372304;26;20095;-70
2024/04/22 10:44:43;;;;;;;1.27;0.70;;;10.70;81.90;;;;;;5363451;26;20043;-70
2024/04/22 10:47:10;;;;;;;3.55;1.38;;;10.80;79.30;;;;;;5384446;26;19997;-70
2024/04/22 10:49:36;;;;;;;2.15;1.15;;;10.60;75.40;;;;;;5352765;26;20444;-70
2024/04/22 10:52:01;;;;;;;3.65;0.93;;;11.10;76.40;;;;;;5354979;26;20032;-68
2024/04/22 10:54:27;;;;;;;1.60;0.85;;;11.30;74.90;;;;;;5348324;26;20109;-69
2024/04/22 10:56:54;;;;;;;1.05;0.60;;;11.20;75.20;;;;;;5355692;26;20012;-68
2024/04/22 10:59:20;;;;;;;1.30;0.82;;;10.50;78.10;;;;;;5348485;26;20004;-68
2024/04/22 11:01:47;;;;;;;1.17;0.45;;;9.90;80.00;;;;;;5369362;26;19997;-69
2024/04/22 11:04:13;;;;;;;1.42;0.45;;;9.70;81.70;;;;;;5345039;26;20526;-68
2024/04/22 11:06:40;;;;;;;2.63;1.02;;;9.80;79.60;;;;;;5364492;26;20007;-69
2024/04/22 11:09:07;;;;;;;1.30;0.82;;;9.90;79.40;;;;;;5351119;26;19996;-69
2024/04/22 11:11:35;;;;;;;4.53;0.88;;;9.90;80.40;;;;;;5345629;26;20001;-69
2024/04/22 11:14:03;;;;;;;1.80;1.48;;;10.40;78.50;;;;;;5344312;26;19997;-69
2024/04/22 11:16:29;;;;;;;9.75;1.27;;;10.80;82.90;;;;;;5367153;26;19997;-69
2024/04/22 11:19:06;;;;;;;4.03;1.30;;;11.00;78.50;;;;;;5310449;26;20348;-70
2024/04/22 11:21:33;;;;;;;1.13;0.68;;;11.30;76.40;;;;;;5363438;26;20001;-69
2024/04/22 11:23:59;;;;;;;1.67;1.05;;;12.10;75.70;;;;;;5356013;26;19997;-69
2024/04/22 11:26:26;;;;;;;0.88;0.77;;;12.20;72.50;;;;;;5365982;26;20001;-69
2024/04/22 11:28:55;;;;;;;7.30;0.80;;;12.30;72.90;;;;;;5369813;26;20055;-69
2024/04/22 11:31:25;;;;;;;1.13;0.70;;;12.40;71.00;;;;;;5377450;26;20000;-68
2024/04/22 11:33:51;;;;;;;5.40;1.30;;;12.50;71.50;;;;;;5367884;26;20004;-69
2024/04/22 11:36:17;;;;;;;3.13;1.00;;;12.30;70.80;;;;;;5361175;26;20359;-72
2024/04/22 11:38:44;;;;;;;2.20;1.23;;;12.00;75.50;;;;;;5362489;26;20004;-70
2024/04/22 11:41:09;;;;;;;3.42;1.40;;;11.50;83.30;;;;;;5366704;26;20341;-70
2024/04/22 11:43:35;;;;;;;3.33;1.88;;;11.00;88.00;;;;;;5363687;26;20534;-70
2024/04/22 11:46:02;;;;;;;3.42;1.27;;;10.50;90.40;;;;;;5361112;26;20023;-71
2024/04/22 11:48:28;;;;;;;3.20;1.50;;;10.20;92.10;;;;;;5346008;26;20492;-72
2024/04/22 11:50:54;;;;;;;4.57;1.50;;;9.70;94.00;;;;;;5353362;26;20005;-75
2024/04/22 11:53:20;;;;;;;1.67;1.23;;;9.50;96.50;;;;;;5348474;26;20020;-70
2024/04/22 11:55:46;;;;;;;1.35;1.10;;;9.40;96.70;;;;;;5359390;26;20001;-70
2024/04/22 11:58:12;;;;;;;2.67;1.08;;;9.50;95.60;;;;;;5344895;26;20001;-71
2024/04/22 12:00:39;;;;;;;1.33;1.00;;;10.10;95.70;;;;;;5359714;26;20442;-70
2024/04/22 12:03:06;;;;;;;3.17;1.40;;;10.60;94.30;;;;;;5335351;26;20012;-69
2024/04/22 12:05:32;;;;;;;3.33;1.50;;;10.60;93.50;;;;;;5358966;26;20016;-69
2024/04/22 12:07:58;;;;;;;2.45;1.10;;;10.40;94.60;;;;;;5344921;26;20074;-69
2024/04/22 12:10:24;;;;;;;3.63;1.73;;;10.60;95.40;;;;;;5350766;26;20449;-69
2024/04/22 12:12:50;;;;;;;3.08;1.42;;;10.60;94.30;;;;;;5344612;26;20468;-69
2024/04/22 12:15:16;;;;;;;2.03;1.15;;;10.50;94.20;;;;;;5345411;26;20078;-69
2024/04/22 12:17:41;;;;;;;1.70;1.05;;;10.40;93.90;;;;;;5343325;26;20121;-70
2024/04/22 12:20:08;;;;;;;10.27;1.83;;;10.20;93.90;;;;;;5355427;26;20004;-69
2024/04/22 12:22:34;;;;;;;1.80;0.73;;;10.10;93.80;;;;;;5359921;26;19997;-70
2024/04/22 12:24:59;;;;;;;3.92;1.63;;;9.80;96.50;;;;;;5359056;26;20020;-70
2024/04/22 12:27:26;;;;;;;1.52;1.20;;;9.90;97.50;;;;;;5370951;26;20010;-70
2024/04/22 12:29:52;;;;;;;1.50;1.13;;;9.60;99.30;;;;;;5314638;26;20008;-70
2024/04/22 12:32:18;;;;;;;1.95;1.17;;;9.60;99.90;;;;;;5353478;26;20011;-70
2024/04/22 12:34:44;;;;;;;2.80;1.70;;;9.40;99.90;;;;;;5344784;26;19997;-69
2024/04/22 12:37:10;;;;;;;2.65;1.35;;;9.20;99.90;;;;;;5351352;26;20131;-70
2024/04/22 12:39:35;;;;;;;2.58;1.23;;;9.40;99.90;;;;;;5357253;26;19993;-69
2024/04/22 12:42:01;;;;;;;2.72;1.27;;;9.30;99.90;;;;;;5353172;26;20009;-71
2024/04/22 12:44:27;;;;;;;2.45;1.27;;;9.60;99.90;;;;;;5348585;26;20000;-70
2024/04/22 12:52:21;;;;;;;2.15;1.13;;;10.40;99.00;;;;;;5360815;26;20393;-69
2024/04/22 12:54:47;;;;;;;4.25;1.55;;;10.70;99.90;;;;;;5353945;26;20012;-70
2024/04/22 12:57:13;;;;;;;2.47;1.00;;;10.70;99.90;;;;;;5365827;26;20005;-69
2024/04/22 12:59:38;;;;;;;1.92;1.30;;;10.60;99.90;;;;;;5326880;26;19997;-75
2024/04/22 13:02:04;;;;;;;5.13;1.90;;;11.50;98.00;;;;;;5359567;26;20001;-70